sensor_id;sensor_type;location;lat;lon;timestamp;P1;durP1;ratioP1;P2;durP2;ratioP2
47804;SDS011;33568;45.286;9.900;2023-05-10T00:00:22;13.52;;;12.27;;
47804;SDS011;33568;45.286;9.900;2023-05-10T00:02:49;13.75;;;12.48;;
47804;SDS011;33568;45.286;9.900;2023-05-10T00:05:16;13.52;;;12.20;;
47804;SDS011;33568;45.286;9.900;2023-05-10T00:07:42;13.55;;;12.20;;
47804;SDS011;33568;45.286;9.900;2023-05-10T00:10:10;15.00;;;13.13;;
47804;SDS011;33568;45.286;9.900;2023-05-10T00:12:37;14.07;;;12.77;;
47804;SDS011;33568;45.286;9.900;2023-05-10T00:15:04;15.90;;;13.25;;
47804;SDS011;33568;45.286;9.900;2023-05-10T00:17:31;14.45;;;13.05;;
47804;SDS011;33568;45.286;9.900;2023-05-10T00:19:57;15.73;;;13.05;;
47804;SDS011;33568;45.286;9.900;2023-05-10T00:22:24;15.75;;;13.63;;
47804;SDS011;33568;45.286;9.900;2023-05-10T00:24:50;15.27;;;13.55;;
47804;SDS011;33568;45.286;9.900;2023-05-10T00:27:17;14.85;;;13.27;;
47804;SDS011;33568;45.286;9.900;2023-05-10T00:29:44;16.10;;;14.35;;
47804;SDS011;33568;45.286;9.900;2023-05-10T00:32:10;15.80;;;14.07;;
47804;SDS011;33568;45.286;9.900;2023-05-10T00:34:37;17.85;;;15.13;;
47804;SDS011;33568;45.286;9.900;2023-05-10T00:37:03;16.73;;;15.15;;
47804;SDS011;33568;45.286;9.900;2023-05-10T00:39:31;16.50;;;14.90;;
47804;SDS011;33568;45.286;9.900;2023-05-10T00:41:58;16.02;;;14.52;;
47804;SDS011;33568;45.286;9.900;2023-05-10T00:44:26;17.50;;;15.80;;
47804;SDS011;33568;45.286;9.900;2023-05-10T00:46:53;17.60;;;15.85;;
47804;SDS011;33568;45.286;9.900;2023-05-10T00:49:19;18.15;;;16.45;;
47804;SDS011;33568;45.286;9.900;2023-05-10T00:51:47;18.42;;;16.52;;
47804;SDS011;33568;45.286;9.900;2023-05-10T00:54:14;18.23;;;16.35;;
47804;SDS011;33568;45.286;9.900;2023-05-10T00:56:41;18.05;;;16.15;;
47804;SDS011;33568;45.286;9.900;2023-05-10T00:59:09;17.92;;;16.13;;
47804;SDS011;33568;45.286;9.900;2023-05-10T01:01:36;19.27;;;17.40;;
47804;SDS011;33568;45.286;9.900;2023-05-10T01:04:03;18.33;;;16.13;;
47804;SDS011;33568;45.286;9.900;2023-05-10T01:06:30;17.58;;;15.85;;
47804;SDS011;33568;45.286;9.900;2023-05-10T01:08:56;16.67;;;15.02;;
47804;SDS011;33568;45.286;9.900;2023-05-10T01:11:23;17.92;;;15.55;;
47804;SDS011;33568;45.286;9.900;2023-05-10T01:13:52;17.73;;;15.90;;
47804;SDS011;33568;45.286;9.900;2023-05-10T01:16:22;17.77;;;16.10;;
47804;SDS011;33568;45.286;9.900;2023-05-10T01:18:50;16.73;;;15.05;;
47804;SDS011;33568;45.286;9.900;2023-05-10T01:21:23;15.73;;;14.15;;
47804;SDS011;33568;45.286;9.900;2023-05-10T01:35:31;18.55;;;16.10;;
47804;SDS011;33568;45.286;9.900;2023-05-10T01:43:57;18.17;;;16.35;;
47804;SDS011;33568;45.286;9.900;2023-05-10T01:46:37;18.35;;;16.52;;
47804;SDS011;33568;45.286;9.900;2023-05-10T01:49:08;19.25;;;16.48;;
47804;SDS011;33568;45.286;9.900;2023-05-10T01:51:53;19.55;;;17.38;;
47804;SDS011;33568;45.286;9.900;2023-05-10T01:54:25;19.33;;;17.25;;
47804;SDS011;33568;45.286;9.900;2023-05-10T01:57:00;21.42;;;18.48;;
47804;SDS011;33568;45.286;9.900;2023-05-10T01:59:30;18.63;;;16.92;;
47804;SDS011;33568;45.286;9.900;2023-05-10T02:02:07;19.20;;;17.30;;
47804;SDS011;33568;45.286;9.900;2023-05-10T02:04:38;19.25;;;17.08;;
47804;SDS011;33568;45.286;9.900;2023-05-10T02:07:06;18.95;;;17.05;;
47804;SDS011;33568;45.286;9.900;2023-05-10T02:09:35;18.35;;;16.45;;
47804;SDS011;33568;45.286;9.900;2023-05-10T02:12:03;17.40;;;15.52;;
47804;SDS011;33568;45.286;9.900;2023-05-10T02:14:32;15.50;;;13.90;;
47804;SDS011;33568;45.286;9.900;2023-05-10T02:17:02;17.10;;;15.27;;
47804;SDS011;33568;45.286;9.900;2023-05-10T02:19:31;17.75;;;16.05;;
47804;SDS011;33568;45.286;9.900;2023-05-10T02:21:59;19.40;;;16.92;;
47804;SDS011;33568;45.286;9.900;2023-05-10T02:24:27;18.95;;;17.05;;
47804;SDS011;33568;45.286;9.900;2023-05-10T02:26:55;19.13;;;17.30;;
47804;SDS011;33568;45.286;9.900;2023-05-10T02:29:26;19.70;;;17.55;;
47804;SDS011;33568;45.286;9.900;2023-05-10T02:31:54;19.83;;;17.80;;
47804;SDS011;33568;45.286;9.900;2023-05-10T02:34:23;18.65;;;16.65;;
47804;SDS011;33568;45.286;9.900;2023-05-10T02:36:52;18.85;;;16.85;;
47804;SDS011;33568;45.286;9.900;2023-05-10T02:39:20;18.60;;;16.75;;
47804;SDS011;33568;45.286;9.900;2023-05-10T02:41:48;19.00;;;17.13;;
47804;SDS011;33568;45.286;9.900;2023-05-10T02:44:20;19.10;;;16.83;;
47804;SDS011;33568;45.286;9.900;2023-05-10T02:46:48;17.48;;;15.68;;
47804;SDS011;33568;45.286;9.900;2023-05-10T02:49:15;19.13;;;17.23;;
47804;SDS011;33568;45.286;9.900;2023-05-10T02:51:44;19.05;;;17.10;;
47804;SDS011;33568;45.286;9.900;2023-05-10T02:54:20;15.82;;;14.32;;
47804;SDS011;33568;45.286;9.900;2023-05-10T02:56:51;15.05;;;13.57;;
47804;SDS011;33568;45.286;9.900;2023-05-10T02:59:22;13.73;;;12.10;;
47804;SDS011;33568;45.286;9.900;2023-05-10T03:01:48;13.02;;;9.98;;
47804;SDS011;33568;45.286;9.900;2023-05-10T03:04:15;12.55;;;7.85;;
47804;SDS011;33568;45.286;9.900;2023-05-10T03:06:41;7.72;;;6.60;;
47804;SDS011;33568;45.286;9.900;2023-05-10T03:09:08;9.38;;;7.50;;
47804;SDS011;33568;45.286;9.900;2023-05-10T03:20:04;7.18;;;6.47;;
47804;SDS011;33568;45.286;9.900;2023-05-10T03:22:37;10.55;;;6.03;;
47804;SDS011;33568;45.286;9.900;2023-05-10T03:25:08;7.00;;;6.30;;
47804;SDS011;33568;45.286;9.900;2023-05-10T03:27:39;6.60;;;5.97;;
47804;SDS011;33568;45.286;9.900;2023-05-10T03:30:07;6.50;;;5.88;;
47804;SDS011;33568;45.286;9.900;2023-05-10T03:32:36;8.13;;;6.32;;
47804;SDS011;33568;45.286;9.900;2023-05-10T03:35:07;7.85;;;5.97;;
47804;SDS011;33568;45.286;9.900;2023-05-10T03:37:35;10.63;;;5.50;;
47804;SDS011;33568;45.286;9.900;2023-05-10T03:42:31;6.68;;;5.93;;
47804;SDS011;33568;45.286;9.900;2023-05-10T03:44:58;7.18;;;5.80;;
47804;SDS011;33568;45.286;9.900;2023-05-10T03:49:51;6.95;;;6.30;;
47804;SDS011;33568;45.286;9.900;2023-05-10T03:52:18;6.05;;;5.32;;
47804;SDS011;33568;45.286;9.900;2023-05-10T03:57:10;9.75;;;5.50;;
47804;SDS011;33568;45.286;9.900;2023-05-10T03:59:37;6.47;;;5.38;;
47804;SDS011;33568;45.286;9.900;2023-05-10T04:04:30;10.48;;;5.40;;
47804;SDS011;33568;45.286;9.900;2023-05-10T04:06:56;6.50;;;5.32;;
47804;SDS011;33568;45.286;9.900;2023-05-10T04:09:23;6.40;;;5.68;;
47804;SDS011;33568;45.286;9.900;2023-05-10T04:11:49;6.55;;;5.90;;
47804;SDS011;33568;45.286;9.900;2023-05-10T04:14:16;5.85;;;4.97;;
47804;SDS011;33568;45.286;9.900;2023-05-10T04:16:43;7.35;;;5.45;;
47804;SDS011;33568;45.286;9.900;2023-05-10T04:21:36;7.10;;;5.13;;
47804;SDS011;33568;45.286;9.900;2023-05-10T04:24:03;6.45;;;4.97;;
47804;SDS011;33568;45.286;9.900;2023-05-10T04:26:30;8.98;;;5.22;;
47804;SDS011;33568;45.286;9.900;2023-05-10T04:28:57;11.38;;;5.25;;
47804;SDS011;33568;45.286;9.900;2023-05-10T04:33:49;7.95;;;5.97;;
47804;SDS011;33568;45.286;9.900;2023-05-10T04:38:42;6.50;;;4.90;;
47804;SDS011;33568;45.286;9.900;2023-05-10T04:41:10;5.63;;;4.57;;
47804;SDS011;33568;45.286;9.900;2023-05-10T04:43:37;8.15;;;4.90;;
47804;SDS011;33568;45.286;9.900;2023-05-10T04:46:04;5.45;;;4.40;;
47804;SDS011;33568;45.286;9.900;2023-05-10T04:48:32;6.30;;;4.68;;
47804;SDS011;33568;45.286;9.900;2023-05-10T04:50:59;6.40;;;4.47;;
47804;SDS011;33568;45.286;9.900;2023-05-10T04:53:26;5.72;;;4.50;;
47804;SDS011;33568;45.286;9.900;2023-05-10T04:55:52;5.72;;;5.15;;
47804;SDS011;33568;45.286;9.900;2023-05-10T05:00:45;7.75;;;5.05;;
47804;SDS011;33568;45.286;9.900;2023-05-10T05:05:38;4.90;;;4.40;;
47804;SDS011;33568;45.286;9.900;2023-05-10T05:10:30;6.85;;;4.30;;
47804;SDS011;33568;45.286;9.900;2023-05-10T05:12:57;5.40;;;4.82;;
47804;SDS011;33568;45.286;9.900;2023-05-10T05:15:24;5.95;;;4.60;;
47804;SDS011;33568;45.286;9.900;2023-05-10T05:20:17;5.23;;;4.43;;
47804;SDS011;33568;45.286;9.900;2023-05-10T05:22:44;6.40;;;4.90;;
47804;SDS011;33568;45.286;9.900;2023-05-10T05:27:37;9.60;;;4.90;;
47804;SDS011;33568;45.286;9.900;2023-05-10T05:32:30;5.75;;;4.78;;
47804;SDS011;33568;45.286;9.900;2023-05-10T05:34:57;7.82;;;4.88;;
47804;SDS011;33568;45.286;9.900;2023-05-10T05:37:23;6.63;;;4.65;;
47804;SDS011;33568;45.286;9.900;2023-05-10T05:39:50;4.70;;;4.20;;
47804;SDS011;33568;45.286;9.900;2023-05-10T05:42:17;10.30;;;5.32;;
47804;SDS011;33568;45.286;9.900;2023-05-10T05:44:44;5.15;;;4.55;;
47804;SDS011;33568;45.286;9.900;2023-05-10T05:49:37;8.10;;;5.03;;
47804;SDS011;33568;45.286;9.900;2023-05-10T05:52:05;5.38;;;4.47;;
47804;SDS011;33568;45.286;9.900;2023-05-10T05:54:31;6.43;;;4.47;;
47804;SDS011;33568;45.286;9.900;2023-05-10T05:56:58;8.07;;;5.05;;
47804;SDS011;33568;45.286;9.900;2023-05-10T05:59:26;6.40;;;4.43;;
47804;SDS011;33568;45.286;9.900;2023-05-10T06:01:53;4.55;;;4.15;;
47804;SDS011;33568;45.286;9.900;2023-05-10T06:04:19;5.93;;;4.13;;
47804;SDS011;33568;45.286;9.900;2023-05-10T06:06:46;5.13;;;4.38;;
47804;SDS011;33568;45.286;9.900;2023-05-10T06:09:13;6.00;;;4.72;;
47804;SDS011;33568;45.286;9.900;2023-05-10T06:11:40;5.57;;;4.28;;
47804;SDS011;33568;45.286;9.900;2023-05-10T06:14:07;5.45;;;4.32;;
47804;SDS011;33568;45.286;9.900;2023-05-10T06:16:34;9.20;;;5.53;;
47804;SDS011;33568;45.286;9.900;2023-05-10T06:19:01;5.82;;;4.40;;
47804;SDS011;33568;45.286;9.900;2023-05-10T06:21:28;8.13;;;4.93;;
47804;SDS011;33568;45.286;9.900;2023-05-10T06:23:57;4.80;;;4.40;;
47804;SDS011;33568;45.286;9.900;2023-05-10T06:26:25;7.03;;;4.50;;
47804;SDS011;33568;45.286;9.900;2023-05-10T06:28:52;5.35;;;4.53;;
47804;SDS011;33568;45.286;9.900;2023-05-10T06:33:45;5.47;;;4.37;;
47804;SDS011;33568;45.286;9.900;2023-05-10T06:36:11;7.88;;;5.15;;
47804;SDS011;33568;45.286;9.900;2023-05-10T06:38:39;6.22;;;5.47;;
47804;SDS011;33568;45.286;9.900;2023-05-10T06:41:06;4.72;;;4.25;;
47804;SDS011;33568;45.286;9.900;2023-05-10T06:43:34;7.47;;;5.10;;
47804;SDS011;33568;45.286;9.900;2023-05-10T06:46:02;6.28;;;4.38;;
47804;SDS011;33568;45.286;9.900;2023-05-10T06:50:55;5.88;;;4.85;;
47804;SDS011;33568;45.286;9.900;2023-05-10T06:53:21;6.78;;;6.20;;
47804;SDS011;33568;45.286;9.900;2023-05-10T06:55:48;6.65;;;5.35;;
47804;SDS011;33568;45.286;9.900;2023-05-10T06:58:15;9.27;;;5.10;;
47804;SDS011;33568;45.286;9.900;2023-05-10T07:00:42;7.90;;;4.50;;
47804;SDS011;33568;45.286;9.900;2023-05-10T07:03:09;6.93;;;5.53;;
47804;SDS011;33568;45.286;9.900;2023-05-10T07:05:36;5.68;;;5.07;;
47804;SDS011;33568;45.286;9.900;2023-05-10T07:08:03;5.10;;;4.30;;
47804;SDS011;33568;45.286;9.900;2023-05-10T07:10:29;7.53;;;5.70;;
47804;SDS011;33568;45.286;9.900;2023-05-10T07:15:22;6.72;;;4.75;;
47804;SDS011;33568;45.286;9.900;2023-05-10T07:17:53;5.47;;;4.93;;
47804;SDS011;33568;45.286;9.900;2023-05-10T07:20:21;6.70;;;5.25;;
47804;SDS011;33568;45.286;9.900;2023-05-10T07:22:48;5.75;;;5.18;;
47804;SDS011;33568;45.286;9.900;2023-05-10T07:27:41;8.50;;;4.60;;
47804;SDS011;33568;45.286;9.900;2023-05-10T07:30:07;5.72;;;5.00;;
47804;SDS011;33568;45.286;9.900;2023-05-10T07:32:34;5.25;;;3.80;;
47804;SDS011;33568;45.286;9.900;2023-05-10T07:35:01;4.75;;;4.25;;
47804;SDS011;33568;45.286;9.900;2023-05-10T07:37:27;7.82;;;5.30;;
47804;SDS011;33568;45.286;9.900;2023-05-10T07:39:54;7.50;;;4.82;;
47804;SDS011;33568;45.286;9.900;2023-05-10T07:42:21;6.43;;;4.53;;
47804;SDS011;33568;45.286;9.900;2023-05-10T07:44:48;4.60;;;3.85;;
47804;SDS011;33568;45.286;9.900;2023-05-10T07:47:15;4.72;;;3.97;;
47804;SDS011;33568;45.286;9.900;2023-05-10T07:52:07;4.30;;;3.90;;
47804;SDS011;33568;45.286;9.900;2023-05-10T07:54:34;3.85;;;3.47;;
47804;SDS011;33568;45.286;9.900;2023-05-10T07:59:27;4.70;;;3.90;;
47804;SDS011;33568;45.286;9.900;2023-05-10T08:01:53;5.45;;;3.42;;
47804;SDS011;33568;45.286;9.900;2023-05-10T08:04:20;4.18;;;3.65;;
47804;SDS011;33568;45.286;9.900;2023-05-10T08:06:47;5.15;;;4.05;;
47804;SDS011;33568;45.286;9.900;2023-05-10T08:09:13;4.60;;;4.10;;
47804;SDS011;33568;45.286;9.900;2023-05-10T08:14:06;4.13;;;3.80;;
47804;SDS011;33568;45.286;9.900;2023-05-10T08:16:33;6.50;;;4.22;;
47804;SDS011;33568;45.286;9.900;2023-05-10T08:19:00;4.32;;;3.90;;
47804;SDS011;33568;45.286;9.900;2023-05-10T08:23:53;4.25;;;3.70;;
47804;SDS011;33568;45.286;9.900;2023-05-10T08:28:47;7.32;;;4.68;;
47804;SDS011;33568;45.286;9.900;2023-05-10T08:33:41;6.20;;;3.72;;
47804;SDS011;33568;45.286;9.900;2023-05-10T08:36:08;5.32;;;3.65;;
47804;SDS011;33568;45.286;9.900;2023-05-10T08:38:35;3.65;;;3.28;;
47804;SDS011;33568;45.286;9.900;2023-05-10T08:41:02;11.07;;;4.15;;
47804;SDS011;33568;45.286;9.900;2023-05-10T08:43:31;5.43;;;3.60;;
47804;SDS011;33568;45.286;9.900;2023-05-10T08:45:59;4.68;;;3.30;;
47804;SDS011;33568;45.286;9.900;2023-05-10T08:48:29;7.68;;;3.60;;
47804;SDS011;33568;45.286;9.900;2023-05-10T08:50:57;5.40;;;3.95;;
47804;SDS011;33568;45.286;9.900;2023-05-10T08:53:25;5.47;;;3.40;;
47804;SDS011;33568;45.286;9.900;2023-05-10T08:55:54;5.00;;;3.65;;
47804;SDS011;33568;45.286;9.900;2023-05-10T08:58:21;4.82;;;3.70;;
47804;SDS011;33568;45.286;9.900;2023-05-10T09:00:48;4.38;;;3.83;;
47804;SDS011;33568;45.286;9.900;2023-05-10T09:03:18;6.20;;;3.47;;
47804;SDS011;33568;45.286;9.900;2023-05-10T09:08:11;6.40;;;3.90;;
47804;SDS011;33568;45.286;9.900;2023-05-10T09:10:39;7.28;;;3.90;;
47804;SDS011;33568;45.286;9.900;2023-05-10T09:13:08;3.95;;;3.55;;
47804;SDS011;33568;45.286;9.900;2023-05-10T09:15:36;4.05;;;3.30;;
47804;SDS011;33568;45.286;9.900;2023-05-10T09:18:03;4.28;;;3.63;;
47804;SDS011;33568;45.286;9.900;2023-05-10T09:20:30;5.28;;;3.50;;
47804;SDS011;33568;45.286;9.900;2023-05-10T09:22:56;4.43;;;3.38;;
47804;SDS011;33568;45.286;9.900;2023-05-10T09:25:23;6.90;;;5.00;;
47804;SDS011;33568;45.286;9.900;2023-05-10T09:27:50;5.03;;;4.53;;
47804;SDS011;33568;45.286;9.900;2023-05-10T09:30:29;4.32;;;3.92;;
47804;SDS011;33568;45.286;9.900;2023-05-10T09:32:57;8.00;;;4.13;;
47804;SDS011;33568;45.286;9.900;2023-05-10T09:35:25;4.10;;;3.70;;
47804;SDS011;33568;45.286;9.900;2023-05-10T09:37:56;5.47;;;4.45;;
47804;SDS011;33568;45.286;9.900;2023-05-10T09:40:26;6.25;;;3.40;;
47804;SDS011;33568;45.286;9.900;2023-05-10T09:42:58;5.25;;;4.05;;
47804;SDS011;33568;45.286;9.900;2023-05-10T09:45:34;7.07;;;4.60;;
47804;SDS011;33568;45.286;9.900;2023-05-10T09:48:02;4.60;;;4.00;;
47804;SDS011;33568;45.286;9.900;2023-05-10T09:50:29;4.97;;;4.40;;
47804;SDS011;33568;45.286;9.900;2023-05-10T09:52:59;5.30;;;4.10;;
47804;SDS011;33568;45.286;9.900;2023-05-10T09:55:43;5.85;;;5.10;;
47804;SDS011;33568;45.286;9.900;2023-05-10T09:58:14;6.15;;;4.60;;
47804;SDS011;33568;45.286;9.900;2023-05-10T10:00:42;5.75;;;4.50;;
47804;SDS011;33568;45.286;9.900;2023-05-10T10:03:16;6.38;;;5.35;;
47804;SDS011;33568;45.286;9.900;2023-05-10T10:05:45;5.82;;;4.13;;
47804;SDS011;33568;45.286;9.900;2023-05-10T10:08:13;4.47;;;4.07;;
47804;SDS011;33568;45.286;9.900;2023-05-10T10:10:41;5.75;;;4.13;;
47804;SDS011;33568;45.286;9.900;2023-05-10T10:13:09;4.78;;;3.85;;
47804;SDS011;33568;45.286;9.900;2023-05-10T10:15:36;5.28;;;3.88;;
47804;SDS011;33568;45.286;9.900;2023-05-10T10:18:03;5.80;;;4.13;;
47804;SDS011;33568;45.286;9.900;2023-05-10T10:20:30;4.82;;;4.30;;
47804;SDS011;33568;45.286;9.900;2023-05-10T10:25:23;3.83;;;3.53;;
47804;SDS011;33568;45.286;9.900;2023-05-10T10:30:28;4.65;;;3.75;;
47804;SDS011;33568;45.286;9.900;2023-05-10T10:35:37;5.53;;;4.13;;
47804;SDS011;33568;45.286;9.900;2023-05-10T10:38:07;4.50;;;4.10;;
47804;SDS011;33568;45.286;9.900;2023-05-10T10:40:34;5.22;;;3.97;;
47804;SDS011;33568;45.286;9.900;2023-05-10T10:43:23;5.68;;;4.10;;
47804;SDS011;33568;45.286;9.900;2023-05-10T10:48:39;5.72;;;4.20;;
47804;SDS011;33568;45.286;9.900;2023-05-10T10:51:17;8.32;;;4.25;;
47804;SDS011;33568;45.286;9.900;2023-05-10T10:53:47;4.50;;;4.03;;
47804;SDS011;33568;45.286;9.900;2023-05-10T10:56:14;4.75;;;4.35;;
47804;SDS011;33568;45.286;9.900;2023-05-10T10:58:41;4.63;;;4.10;;
47804;SDS011;33568;45.286;9.900;2023-05-10T11:01:15;4.60;;;4.20;;
47804;SDS011;33568;45.286;9.900;2023-05-10T11:06:34;4.95;;;4.45;;
47804;SDS011;33568;45.286;9.900;2023-05-10T11:09:11;7.30;;;4.10;;
47804;SDS011;33568;45.286;9.900;2023-05-10T11:14:19;4.47;;;4.05;;
47804;SDS011;33568;45.286;9.900;2023-05-10T11:16:48;6.00;;;4.43;;
47804;SDS011;33568;45.286;9.900;2023-05-10T11:19:15;5.75;;;4.25;;
47804;SDS011;33568;45.286;9.900;2023-05-10T11:21:44;5.32;;;4.40;;
47804;SDS011;33568;45.286;9.900;2023-05-10T11:24:19;4.25;;;3.85;;
47804;SDS011;33568;45.286;9.900;2023-05-10T11:29:19;6.05;;;4.32;;
47804;SDS011;33568;45.286;9.900;2023-05-10T11:31:46;4.93;;;4.05;;
47804;SDS011;33568;45.286;9.900;2023-05-10T11:34:24;8.18;;;4.22;;
47804;SDS011;33568;45.286;9.900;2023-05-10T11:36:56;5.18;;;3.92;;
47804;SDS011;33568;45.286;9.900;2023-05-10T11:39:26;5.82;;;4.30;;
47804;SDS011;33568;45.286;9.900;2023-05-10T11:41:54;4.40;;;4.00;;
47804;SDS011;33568;45.286;9.900;2023-05-10T11:44:21;4.75;;;4.05;;
47804;SDS011;33568;45.286;9.900;2023-05-10T11:46:48;4.18;;;3.13;;
47804;SDS011;33568;45.286;9.900;2023-05-10T11:49:15;4.13;;;3.63;;
47804;SDS011;33568;45.286;9.900;2023-05-10T11:51:42;5.95;;;4.22;;
47804;SDS011;33568;45.286;9.900;2023-05-10T11:54:09;6.43;;;4.38;;
47804;SDS011;33568;45.286;9.900;2023-05-10T11:56:37;5.18;;;4.07;;
47804;SDS011;33568;45.286;9.900;2023-05-10T11:59:04;5.35;;;4.30;;
47804;SDS011;33568;45.286;9.900;2023-05-10T12:01:31;4.18;;;3.78;;
47804;SDS011;33568;45.286;9.900;2023-05-10T12:03:58;4.00;;;3.70;;
47804;SDS011;33568;45.286;9.900;2023-05-10T12:06:26;4.38;;;3.97;;
47804;SDS011;33568;45.286;9.900;2023-05-10T12:08:54;3.53;;;3.22;;
47804;SDS011;33568;45.286;9.900;2023-05-10T12:11:24;5.40;;;3.70;;
47804;SDS011;33568;45.286;9.900;2023-05-10T12:13:51;4.03;;;3.63;;
47804;SDS011;33568;45.286;9.900;2023-05-10T12:16:23;4.97;;;3.80;;
47804;SDS011;33568;45.286;9.900;2023-05-10T12:18:58;4.43;;;3.92;;
47804;SDS011;33568;45.286;9.900;2023-05-10T12:21:27;4.72;;;4.13;;
47804;SDS011;33568;45.286;9.900;2023-05-10T12:24:00;4.60;;;3.80;;
47804;SDS011;33568;45.286;9.900;2023-05-10T12:26:29;5.82;;;3.80;;
47804;SDS011;33568;45.286;9.900;2023-05-10T12:29:11;5.03;;;3.42;;
47804;SDS011;33568;45.286;9.900;2023-05-10T12:31:54;5.13;;;3.40;;
47804;SDS011;33568;45.286;9.900;2023-05-10T12:34:24;5.45;;;3.42;;
47804;SDS011;33568;45.286;9.900;2023-05-10T12:36:54;4.28;;;3.92;;
47804;SDS011;33568;45.286;9.900;2023-05-10T12:39:21;4.20;;;3.80;;
47804;SDS011;33568;45.286;9.900;2023-05-10T12:41:48;5.90;;;4.20;;
47804;SDS011;33568;45.286;9.900;2023-05-10T12:46:41;3.72;;;3.40;;
47804;SDS011;33568;45.286;9.900;2023-05-10T12:49:07;4.35;;;3.13;;
47804;SDS011;33568;45.286;9.900;2023-05-10T12:54:00;3.97;;;3.42;;
47804;SDS011;33568;45.286;9.900;2023-05-10T12:56:28;4.03;;;3.70;;
47804;SDS011;33568;45.286;9.900;2023-05-10T12:58:54;4.55;;;3.88;;
47804;SDS011;33568;45.286;9.900;2023-05-10T13:03:47;3.95;;;3.50;;
47804;SDS011;33568;45.286;9.900;2023-05-10T13:08:40;4.32;;;2.92;;
47804;SDS011;33568;45.286;9.900;2023-05-10T13:11:06;4.90;;;3.63;;
47804;SDS011;33568;45.286;9.900;2023-05-10T13:13:33;2.97;;;2.67;;
47804;SDS011;33568;45.286;9.900;2023-05-10T13:16:00;3.33;;;3.05;;
47804;SDS011;33568;45.286;9.900;2023-05-10T13:20:53;4.10;;;2.63;;
47804;SDS011;33568;45.286;9.900;2023-05-10T13:23:21;3.03;;;2.78;;
47804;SDS011;33568;45.286;9.900;2023-05-10T13:25:48;4.85;;;3.05;;
47804;SDS011;33568;45.286;9.900;2023-05-10T13:28:14;2.90;;;2.67;;
47804;SDS011;33568;45.286;9.900;2023-05-10T13:30:41;3.35;;;2.90;;
47804;SDS011;33568;45.286;9.900;2023-05-10T13:33:07;4.85;;;3.13;;
47804;SDS011;33568;45.286;9.900;2023-05-10T13:38:00;2.95;;;2.75;;
47804;SDS011;33568;45.286;9.900;2023-05-10T13:40:27;4.63;;;3.15;;
47804;SDS011;33568;45.286;9.900;2023-05-10T13:42:53;3.05;;;2.75;;
47804;SDS011;33568;45.286;9.900;2023-05-10T13:47:46;3.88;;;2.97;;
47804;SDS011;33568;45.286;9.900;2023-05-10T13:50:20;3.47;;;3.17;;
47804;SDS011;33568;45.286;9.900;2023-05-10T13:52:51;3.60;;;3.30;;
47804;SDS011;33568;45.286;9.900;2023-05-10T13:57:44;4.47;;;3.40;;
47804;SDS011;33568;45.286;9.900;2023-05-10T14:00:11;7.25;;;3.65;;
47804;SDS011;33568;45.286;9.900;2023-05-10T14:02:37;4.60;;;3.33;;
47804;SDS011;33568;45.286;9.900;2023-05-10T14:07:30;3.92;;;3.63;;
47804;SDS011;33568;45.286;9.900;2023-05-10T14:12:23;5.20;;;3.92;;
47804;SDS011;33568;45.286;9.900;2023-05-10T14:14:50;5.22;;;4.82;;
47804;SDS011;33568;45.286;9.900;2023-05-10T14:17:16;5.10;;;4.60;;
47804;SDS011;33568;45.286;9.900;2023-05-10T14:19:43;8.25;;;5.88;;
47804;SDS011;33568;45.286;9.900;2023-05-10T14:24:36;7.15;;;6.50;;
47804;SDS011;33568;45.286;9.900;2023-05-10T14:27:04;6.93;;;6.32;;
47804;SDS011;33568;45.286;9.900;2023-05-10T14:29:31;6.80;;;6.18;;
47804;SDS011;33568;45.286;9.900;2023-05-10T14:31:58;8.68;;;6.15;;
47804;SDS011;33568;45.286;9.900;2023-05-10T14:34:25;8.63;;;6.60;;
47804;SDS011;33568;45.286;9.900;2023-05-10T14:36:51;8.75;;;8.05;;
47804;SDS011;33568;45.286;9.900;2023-05-10T14:41:44;8.15;;;7.40;;
47804;SDS011;33568;45.286;9.900;2023-05-10T14:44:11;8.18;;;7.15;;
47804;SDS011;33568;45.286;9.900;2023-05-10T14:46:37;8.45;;;7.75;;
47804;SDS011;33568;45.286;9.900;2023-05-10T14:49:05;8.52;;;7.72;;
47804;SDS011;33568;45.286;9.900;2023-05-10T14:51:31;6.93;;;6.30;;
47804;SDS011;33568;45.286;9.900;2023-05-10T14:56:24;6.45;;;5.88;;
47804;SDS011;33568;45.286;9.900;2023-05-10T14:58:51;5.95;;;5.45;;
47804;SDS011;33568;45.286;9.900;2023-05-10T15:01:18;5.70;;;5.20;;
47804;SDS011;33568;45.286;9.900;2023-05-10T15:03:44;5.82;;;5.40;;
47804;SDS011;33568;45.286;9.900;2023-05-10T15:06:11;5.93;;;5.18;;
47804;SDS011;33568;45.286;9.900;2023-05-10T15:08:39;7.03;;;5.50;;
47804;SDS011;33568;45.286;9.900;2023-05-10T15:11:06;6.72;;;6.13;;
47804;SDS011;33568;45.286;9.900;2023-05-10T15:13:32;6.00;;;5.40;;
47804;SDS011;33568;45.286;9.900;2023-05-10T15:15:58;5.80;;;5.30;;
47804;SDS011;33568;45.286;9.900;2023-05-10T15:18:25;5.35;;;4.88;;
47804;SDS011;33568;45.286;9.900;2023-05-10T15:20:52;6.18;;;5.57;;
47804;SDS011;33568;45.286;9.900;2023-05-10T15:23:18;5.72;;;5.25;;
47804;SDS011;33568;45.286;9.900;2023-05-10T15:25:45;5.43;;;4.93;;
47804;SDS011;33568;45.286;9.900;2023-05-10T15:28:12;5.32;;;4.93;;
47804;SDS011;33568;45.286;9.900;2023-05-10T15:30:38;5.20;;;4.80;;
47804;SDS011;33568;45.286;9.900;2023-05-10T15:33:06;4.82;;;4.43;;
47804;SDS011;33568;45.286;9.900;2023-05-10T15:35:33;4.53;;;4.13;;
47804;SDS011;33568;45.286;9.900;2023-05-10T15:38:04;6.85;;;5.05;;
47804;SDS011;33568;45.286;9.900;2023-05-10T15:40:30;6.47;;;5.30;;
47804;SDS011;33568;45.286;9.900;2023-05-10T15:42:57;5.28;;;4.78;;
47804;SDS011;33568;45.286;9.900;2023-05-10T15:45:23;7.40;;;5.63;;
47804;SDS011;33568;45.286;9.900;2023-05-10T15:47:50;6.30;;;4.72;;
47804;SDS011;33568;45.286;9.900;2023-05-10T15:50:17;5.10;;;4.70;;
47804;SDS011;33568;45.286;9.900;2023-05-10T15:52:43;4.63;;;4.32;;
47804;SDS011;33568;45.286;9.900;2023-05-10T15:55:10;4.78;;;4.28;;
47804;SDS011;33568;45.286;9.900;2023-05-10T15:57:41;5.60;;;5.10;;
47804;SDS011;33568;45.286;9.900;2023-05-10T16:00:09;6.32;;;5.72;;
47804;SDS011;33568;45.286;9.900;2023-05-10T16:02:39;5.43;;;4.93;;
47804;SDS011;33568;45.286;9.900;2023-05-10T16:05:06;5.63;;;5.13;;
47804;SDS011;33568;45.286;9.900;2023-05-10T16:07:34;7.07;;;4.43;;
47804;SDS011;33568;45.286;9.900;2023-05-10T16:10:01;5.82;;;5.13;;
47804;SDS011;33568;45.286;9.900;2023-05-10T16:12:29;5.65;;;5.15;;
47804;SDS011;33568;45.286;9.900;2023-05-10T16:14:56;6.43;;;5.35;;
47804;SDS011;33568;45.286;9.900;2023-05-10T16:17:22;6.35;;;5.20;;
47804;SDS011;33568;45.286;9.900;2023-05-10T16:19:49;5.88;;;5.45;;
47804;SDS011;33568;45.286;9.900;2023-05-10T16:22:15;5.15;;;4.75;;
47804;SDS011;33568;45.286;9.900;2023-05-10T16:24:42;7.57;;;4.75;;
47804;SDS011;33568;45.286;9.900;2023-05-10T16:27:09;5.65;;;5.15;;
47804;SDS011;33568;45.286;9.900;2023-05-10T16:29:38;6.18;;;5.57;;
47804;SDS011;33568;45.286;9.900;2023-05-10T16:32:04;5.68;;;5.18;;
47804;SDS011;33568;45.286;9.900;2023-05-10T16:34:31;6.05;;;5.55;;
47804;SDS011;33568;45.286;9.900;2023-05-10T16:39:25;5.90;;;5.35;;
47804;SDS011;33568;45.286;9.900;2023-05-10T16:44:17;6.30;;;5.70;;
47804;SDS011;33568;45.286;9.900;2023-05-10T16:46:44;6.20;;;5.70;;
47804;SDS011;33568;45.286;9.900;2023-05-10T16:49:10;5.80;;;5.30;;
47804;SDS011;33568;45.286;9.900;2023-05-10T16:51:37;7.35;;;6.47;;
47804;SDS011;33568;45.286;9.900;2023-05-10T16:54:03;6.57;;;6.05;;
47804;SDS011;33568;45.286;9.900;2023-05-10T16:56:30;6.65;;;6.05;;
47804;SDS011;33568;45.286;9.900;2023-05-10T16:58:56;7.05;;;6.40;;
47804;SDS011;33568;45.286;9.900;2023-05-10T17:01:23;6.93;;;6.28;;
47804;SDS011;33568;45.286;9.900;2023-05-10T17:03:50;6.97;;;5.97;;
47804;SDS011;33568;45.286;9.900;2023-05-10T17:06:16;6.82;;;6.22;;
47804;SDS011;33568;45.286;9.900;2023-05-10T17:11:09;6.80;;;6.10;;